sensor_id;sensor_type;location;lat;lon;timestamp;temperature;humidity
20858;DHT22;10589;53.636;10.012;2022-12-07T04:46:57;0.80;99.90
20858;DHT22;10589;53.636;10.012;2022-12-07T04:49:24;0.70;99.90
20858;DHT22;10589;53.636;10.012;2022-12-07T04:51:50;0.80;99.90
20858;DHT22;10589;53.636;10.012;2022-12-07T04:54:16;0.90;99.90
20858;DHT22;10589;53.636;10.012;2022-12-07T04:56:42;0.80;99.90
20858;DHT22;10589;53.636;10.012;2022-12-07T04:59:10;0.80;99.90
20858;DHT22;10589;53.636;10.012;2022-12-07T05:01:36;0.70;99.90
20858;DHT22;10589;53.636;10.012;2022-12-07T05:04:02;0.70;99.90
20858;DHT22;10589;53.636;10.012;2022-12-07T05:06:27;0.60;99.90
20858;DHT22;10589;53.636;10.012;2022-12-07T05:08:53;0.50;99.90
20858;DHT22;10589;53.636;10.012;2022-12-07T05:11:19;0.50;99.90
20858;DHT22;10589;53.636;10.012;2022-12-07T05:14:04;0.50;99.90
20858;DHT22;10589;53.636;10.012;2022-12-07T05:16:31;0.50;99.90
20858;DHT22;10589;53.636;10.012;2022-12-07T05:18:57;0.50;99.90
20858;DHT22;10589;53.636;10.012;2022-12-07T05:21:23;0.50;99.90
20858;DHT22;10589;53.636;10.012;2022-12-07T05:23:48;0.40;99.90
20858;DHT22;10589;53.636;10.012;2022-12-07T05:26:14;0.40;99.90
20858;DHT22;10589;53.636;10.012;2022-12-07T05:28:40;0.30;99.90
20858;DHT22;10589;53.636;10.012;2022-12-07T05:31:05;0.30;99.90
20858;DHT22;10589;53.636;10.012;2022-12-07T05:33:31;0.30;99.90
20858;DHT22;10589;53.636;10.012;2022-12-07T05:35:57;0.30;99.90
20858;DHT22;10589;53.636;10.012;2022-12-07T05:38:23;0.30;99.90
20858;DHT22;10589;53.636;10.012;2022-12-07T05:40:50;0.30;99.90
20858;DHT22;10589;53.636;10.012;2022-12-07T05:43:15;0.30;99.90
20858;DHT22;10589;53.636;10.012;2022-12-07T05:45:41;0.30;99.90
20858;DHT22;10589;53.636;10.012;2022-12-07T05:48:07;0.30;99.90
20858;DHT22;10589;53.636;10.012;2022-12-07T05:50:32;0.30;99.90
20858;DHT22;10589;53.636;10.012;2022-12-07T05:52:58;0.20;99.90
20858;DHT22;10589;53.636;10.012;2022-12-07T05:55:23;0.20;99.90
20858;DHT22;10589;53.636;10.012;2022-12-07T05:57:49;0.20;99.90
20858;DHT22;10589;53.636;10.012;2022-12-07T06:00:33;0.10;99.90
20858;DHT22;10589;53.636;10.012;2022-12-07T06:02:58;0.20;99.90
20858;DHT22;10589;53.636;10.012;2022-12-07T06:05:24;0.30;99.90
20858;DHT22;10589;53.636;10.012;2022-12-07T06:07:50;0.30;99.90
20858;DHT22;10589;53.636;10.012;2022-12-07T06:10:15;0.40;99.90
20858;DHT22;10589;53.636;10.012;2022-12-07T06:12:41;0.50;99.90
20858;DHT22;10589;53.636;10.012;2022-12-07T06:15:09;0.60;99.90
20858;DHT22;10589;53.636;10.012;2022-12-07T06:17:35;0.60;99.90
20858;DHT22;10589;53.636;10.012;2022-12-07T06:20:00;0.60;99.90
20858;DHT22;10589;53.636;10.012;2022-12-07T06:22:26;0.70;99.90
20858;DHT22;10589;53.636;10.012;2022-12-07T06:24:52;0.70;99.90
20858;DHT22;10589;53.636;10.012;2022-12-07T06:27:17;0.70;99.90
20858;DHT22;10589;53.636;10.012;2022-12-07T06:29:43;0.70;99.90
20858;DHT22;10589;53.636;10.012;2022-12-07T06:32:08;0.70;99.90
20858;DHT22;10589;53.636;10.012;2022-12-07T06:34:34;0.70;99.90
20858;DHT22;10589;53.636;10.012;2022-12-07T06:37:00;0.60;99.90
20858;DHT22;10589;53.636;10.012;2022-12-07T06:39:27;0.60;99.90
20858;DHT22;10589;53.636;10.012;2022-12-07T06:41:53;0.60;99.90
20858;DHT22;10589;53.636;10.012;2022-12-07T06:44:20;0.70;99.90
20858;DHT22;10589;53.636;10.012;2022-12-07T06:46:47;0.80;99.90
20858;DHT22;10589;53.636;10.012;2022-12-07T06:49:13;0.90;99.90
20858;DHT22;10589;53.636;10.012;2022-12-07T06:51:39;0.90;99.90
20858;DHT22;10589;53.636;10.012;2022-12-07T06:54:14;1.00;99.90
20858;DHT22;10589;53.636;10.012;2022-12-07T06:56:40;0.90;99.90
20858;DHT22;10589;53.636;10.012;2022-12-07T06:59:06;0.80;99.90
20858;DHT22;10589;53.636;10.012;2022-12-07T07:01:34;0.80;99.90
20858;DHT22;10589;53.636;10.012;2022-12-07T07:04:00;0.80;99.90
20858;DHT22;10589;53.636;10.012;2022-12-07T07:06:26;0.80;99.90
20858;DHT22;10589;53.636;10.012;2022-12-07T07:08:52;0.90;99.90
20858;DHT22;10589;53.636;10.012;2022-12-07T07:11:17;1.00;99.90
20858;DHT22;10589;53.636;10.012;2022-12-07T07:13:44;1.00;99.90
20858;DHT22;10589;53.636;10.012;2022-12-07T07:16:10;1.20;99.90
20858;DHT22;10589;53.636;10.012;2022-12-07T07:18:35;1.30;99.90
20858;DHT22;10589;53.636;10.012;2022-12-07T07:21:01;1.30;99.90
20858;DHT22;10589;53.636;10.012;2022-12-07T07:23:27;1.30;99.90
20858;DHT22;10589;53.636;10.012;2022-12-07T07:25:53;1.30;99.90
20858;DHT22;10589;53.636;10.012;2022-12-07T07:28:18;1.20;99.90
20858;DHT22;10589;53.636;10.012;2022-12-07T07:30:44;1.40;99.90
20858;DHT22;10589;53.636;10.012;2022-12-07T07:33:10;1.50;99.90
20858;DHT22;10589;53.636;10.012;2022-12-07T07:35:36;1.60;99.90
20858;DHT22;10589;53.636;10.012;2022-12-07T07:38:02;1.60;99.90
20858;DHT22;10589;53.636;10.012;2022-12-07T07:40:28;1.60;99.90
20858;DHT22;10589;53.636;10.012;2022-12-07T07:42:55;1.60;99.90
20858;DHT22;10589;53.636;10.012;2022-12-07T07:45:22;1.50;99.90
20858;DHT22;10589;53.636;10.012;2022-12-07T07:47:48;1.60;99.90
20858;DHT22;10589;53.636;10.012;2022-12-07T07:50:14;1.60;99.90
20858;DHT22;10589;53.636;10.012;2022-12-07T07:52:40;1.70;99.90
20858;DHT22;10589;53.636;10.012;2022-12-07T07:55:06;1.70;99.90
20858;DHT22;10589;53.636;10.012;2022-12-07T07:57:37;1.80;99.90
20858;DHT22;10589;53.636;10.012;2022-12-07T08:00:12;1.80;99.90
20858;DHT22;10589;53.636;10.012;2022-12-07T08:02:39;1.80;99.90
20858;DHT22;10589;53.636;10.012;2022-12-07T08:05:05;1.80;99.90
20858;DHT22;10589;53.636;10.012;2022-12-07T08:07:30;1.80;99.90
20858;DHT22;10589;53.636;10.012;2022-12-07T08:09:56;1.80;99.90
20858;DHT22;10589;53.636;10.012;2022-12-07T08:12:22;1.70;99.90
20858;DHT22;10589;53.636;10.012;2022-12-07T08:14:47;1.70;99.90
20858;DHT22;10589;53.636;10.012;2022-12-07T08:17:13;1.70;99.90
20858;DHT22;10589;53.636;10.012;2022-12-07T08:19:38;1.60;99.90
20858;DHT22;10589;53.636;10.012;2022-12-07T08:22:04;1.70;99.90
20858;DHT22;10589;53.636;10.012;2022-12-07T08:24:32;1.80;99.90
20858;DHT22;10589;53.636;10.012;2022-12-07T08:26:57;1.80;99.90
20858;DHT22;10589;53.636;10.012;2022-12-07T08:29:23;1.80;99.90
20858;DHT22;10589;53.636;10.012;2022-12-07T08:31:49;1.80;99.90
20858;DHT22;10589;53.636;10.012;2022-12-07T08:34:14;1.90;99.90
20858;DHT22;10589;53.636;10.012;2022-12-07T08:36:40;1.90;99.90
20858;DHT22;10589;53.636;10.012;2022-12-07T08:39:06;1.90;99.90
20858;DHT22;10589;53.636;10.012;2022-12-07T08:41:32;1.90;99.90
20858;DHT22;10589;53.636;10.012;2022-12-07T08:43:57;2.00;99.90
20858;DHT22;10589;53.636;10.012;2022-12-07T08:46:28;2.10;99.90
20858;DHT22;10589;53.636;10.012;2022-12-07T08:48:59;2.20;99.90
20858;DHT22;10589;53.636;10.012;2022-12-07T08:51:27;2.30;99.90
20858;DHT22;10589;53.636;10.012;2022-12-07T08:53:54;2.30;99.90
20858;DHT22;10589;53.636;10.012;2022-12-07T08:56:21;2.40;99.90
20858;DHT22;10589;53.636;10.012;2022-12-07T08:58:47;2.40;99.90
20858;DHT22;10589;53.636;10.012;2022-12-07T09:01:13;2.40;99.90
20858;DHT22;10589;53.636;10.012;2022-12-07T09:03:39;2.50;99.90
20858;DHT22;10589;53.636;10.012;2022-12-07T09:06:04;2.60;99.90
20858;DHT22;10589;53.636;10.012;2022-12-07T09:08:34;2.60;99.90
20858;DHT22;10589;53.636;10.012;2022-12-07T09:11:02;2.50;99.90
20858;DHT22;10589;53.636;10.012;2022-12-07T09:13:27;2.70;99.90
20858;DHT22;10589;53.636;10.012;2022-12-07T09:15:53;2.70;99.90
20858;DHT22;10589;53.636;10.012;2022-12-07T09:18:18;2.80;99.90
20858;DHT22;10589;53.636;10.012;2022-12-07T09:20:45;2.80;99.90
20858;DHT22;10589;53.636;10.012;2022-12-07T09:23:11;2.90;99.90
20858;DHT22;10589;53.636;10.012;2022-12-07T09:25:36;2.90;99.90
20858;DHT22;10589;53.636;10.012;2022-12-07T09:28:02;2.90;99.90
20858;DHT22;10589;53.636;10.012;2022-12-07T09:30:28;3.00;99.90
20858;DHT22;10589;53.636;10.012;2022-12-07T09:32:57;3.10;99.90
20858;DHT22;10589;53.636;10.012;2022-12-07T09:35:23;3.10;99.90
20858;DHT22;10589;53.636;10.012;2022-12-07T09:37:49;3.20;99.90
20858;DHT22;10589;53.636;10.012;2022-12-07T09:40:16;3.20;99.90
20858;DHT22;10589;53.636;10.012;2022-12-07T09:42:45;3.20;99.90
20858;DHT22;10589;53.636;10.012;2022-12-07T09:45:16;3.20;99.90
20858;DHT22;10589;53.636;10.012;2022-12-07T09:47:42;3.30;99.90
20858;DHT22;10589;53.636;10.012;2022-12-07T09:50:21;3.30;99.90
20858;DHT22;10589;53.636;10.012;2022-12-07T09:52:49;3.40;99.90
20858;DHT22;10589;53.636;10.012;2022-12-07T09:55:19;3.30;99.90
20858;DHT22;10589;53.636;10.012;2022-12-07T09:57:46;3.20;99.90
20858;DHT22;10589;53.636;10.012;2022-12-07T10:00:17;3.40;99.90
20858;DHT22;10589;53.636;10.012;2022-12-07T10:02:50;3.40;99.90
20858;DHT22;10589;53.636;10.012;2022-12-07T10:05:26;3.60;99.90
20858;DHT22;10589;53.636;10.012;2022-12-07T10:07:53;3.60;99.90
20858;DHT22;10589;53.636;10.012;2022-12-07T10:10:31;3.70;99.90
20858;DHT22;10589;53.636;10.012;2022-12-07T10:15:22;3.70;99.90
20858;DHT22;10589;53.636;10.012;2022-12-07T10:17:52;3.70;99.90
20858;DHT22;10589;53.636;10.012;2022-12-07T10:20:25;3.70;99.90
20858;DHT22;10589;53.636;10.012;2022-12-07T10:22:58;3.80;99.90
20858;DHT22;10589;53.636;10.012;2022-12-07T10:25:30;3.80;99.90
20858;DHT22;10589;53.636;10.012;2022-12-07T10:28:02;3.90;99.90
20858;DHT22;10589;53.636;10.012;2022-12-07T10:30:29;3.90;99.90
20858;DHT22;10589;53.636;10.012;2022-12-07T10:32:55;3.90;99.90
20858;DHT22;10589;53.636;10.012;2022-12-07T10:35:24;3.90;99.90
20858;DHT22;10589;53.636;10.012;2022-12-07T10:37:52;3.90;99.90
20858;DHT22;10589;53.636;10.012;2022-12-07T10:40:28;4.00;99.90
20858;DHT22;10589;53.636;10.012;2022-12-07T10:48:30;4.10;99.90
20858;DHT22;10589;53.636;10.012;2022-12-07T10:56:46;4.20;99.90
20858;DHT22;10589;53.636;10.012;2022-12-07T10:59:47;4.20;99.90
20858;DHT22;10589;53.636;10.012;2022-12-07T11:02:25;4.10;99.90
20858;DHT22;10589;53.636;10.012;2022-12-07T11:13:29;4.20;99.90
20858;DHT22;10589;53.636;10.012;2022-12-07T11:16:21;4.20;99.90
20858;DHT22;10589;53.636;10.012;2022-12-07T11:21:53;4.30;99.90
20858;DHT22;10589;53.636;10.012;2022-12-07T11:30:24;4.10;99.90
20858;DHT22;10589;53.636;10.012;2022-12-07T11:33:11;4.10;99.90
20858;DHT22;10589;53.636;10.012;2022-12-07T11:38:15;4.40;99.90
20858;DHT22;10589;53.636;10.012;2022-12-07T11:40:46;4.30;99.90
20858;DHT22;10589;53.636;10.012;2022-12-07T11:43:24;4.30;99.90
20858;DHT22;10589;53.636;10.012;2022-12-07T11:46:02;4.20;99.90
20858;DHT22;10589;53.636;10.012;2022-12-07T11:51:21;4.40;99.90
20858;DHT22;10589;53.636;10.012;2022-12-07T11:53:51;4.40;99.90
20858;DHT22;10589;53.636;10.012;2022-12-07T11:56:23;4.40;99.90
20858;DHT22;10589;53.636;10.012;2022-12-07T11:59:00;4.40;99.90
20858;DHT22;10589;53.636;10.012;2022-12-07T12:06:44;4.70;99.90
20858;DHT22;10589;53.636;10.012;2022-12-07T12:09:29;4.60;99.90
20858;DHT22;10589;53.636;10.012;2022-12-07T12:14:52;4.60;99.90
20858;DHT22;10589;53.636;10.012;2022-12-07T12:17:42;4.60;99.90
20858;DHT22;10589;53.636;10.012;2022-12-07T12:23:10;4.30;99.90
20858;DHT22;10589;53.636;10.012;2022-12-07T12:25:39;4.40;99.90
20858;DHT22;10589;53.636;10.012;2022-12-07T12:28:05;4.30;99.90
20858;DHT22;10589;53.636;10.012;2022-12-07T12:30:39;4.40;99.90
20858;DHT22;10589;53.636;10.012;2022-12-07T12:33:28;4.50;99.90
20858;DHT22;10589;53.636;10.012;2022-12-07T12:36:25;4.60;99.90
20858;DHT22;10589;53.636;10.012;2022-12-07T12:46:56;4.60;99.90
20858;DHT22;10589;53.636;10.012;2022-12-07T12:51:58;4.50;99.90
20858;DHT22;10589;53.636;10.012;2022-12-07T12:54:37;4.60;99.90
20858;DHT22;10589;53.636;10.012;2022-12-07T12:57:26;4.60;99.90
20858;DHT22;10589;53.636;10.012;2022-12-07T13:15:42;4.10;99.90
20858;DHT22;10589;53.636;10.012;2022-12-07T13:28:50;4.60;99.90
20858;DHT22;10589;53.636;10.012;2022-12-07T13:31:34;4.80;99.90
20858;DHT22;10589;53.636;10.012;2022-12-07T13:34:02;4.90;99.90
20858;DHT22;10589;53.636;10.012;2022-12-07T13:36:39;5.00;99.90
20858;DHT22;10589;53.636;10.012;2022-12-07T13:41:42;5.30;99.90
20858;DHT22;10589;53.636;10.012;2022-12-07T13:44:13;5.20;99.90
20858;DHT22;10589;53.636;10.012;2022-12-07T13:49:31;5.20;99.90
20858;DHT22;10589;53.636;10.012;2022-12-07T13:52:28;5.20;99.90
20858;DHT22;10589;53.636;10.012;2022-12-07T13:55:11;5.10;99.90
20858;DHT22;10589;53.636;10.012;2022-12-07T13:57:39;5.00;99.90
20858;DHT22;10589;53.636;10.012;2022-12-07T14:00:15;5.00;99.90
20858;DHT22;10589;53.636;10.012;2022-12-07T14:03:01;4.80;99.90
20858;DHT22;10589;53.636;10.012;2022-12-07T14:05:29;4.70;99.90
20858;DHT22;10589;53.636;10.012;2022-12-07T14:08:20;4.70;99.90
20858;DHT22;10589;53.636;10.012;2022-12-07T14:13:34;4.50;99.90
20858;DHT22;10589;53.636;10.012;2022-12-07T14:16:02;4.50;99.90
20858;DHT22;10589;53.636;10.012;2022-12-07T14:21:14;4.20;99.90
20858;DHT22;10589;53.636;10.012;2022-12-07T14:23:41;4.30;99.90
20858;DHT22;10589;53.636;10.012;2022-12-07T14:26:28;4.20;99.90
20858;DHT22;10589;53.636;10.012;2022-12-07T14:29:18;4.20;99.90
20858;DHT22;10589;53.636;10.012;2022-12-07T14:31:38;4.10;99.90
20858;DHT22;10589;53.636;10.012;2022-12-07T14:34:04;4.00;99.90
20858;DHT22;10589;53.636;10.012;2022-12-07T14:36:29;3.80;99.90
20858;DHT22;10589;53.636;10.012;2022-12-07T14:38:55;3.80;99.90
20858;DHT22;10589;53.636;10.012;2022-12-07T14:41:23;3.60;99.90
20858;DHT22;10589;53.636;10.012;2022-12-07T14:44:11;3.40;99.90
20858;DHT22;10589;53.636;10.012;2022-12-07T14:46:37;3.20;99.90
20858;DHT22;10589;53.636;10.012;2022-12-07T14:49:03;3.00;99.90
20858;DHT22;10589;53.636;10.012;2022-12-07T14:51:28;2.90;99.90
20858;DHT22;10589;53.636;10.012;2022-12-07T14:53:54;2.80;99.90
20858;DHT22;10589;53.636;10.012;2022-12-07T14:56:20;2.70;99.90
20858;DHT22;10589;53.636;10.012;2022-12-07T14:58:46;2.70;99.90
20858;DHT22;10589;53.636;10.012;2022-12-07T15:01:13;2.60;99.90
20858;DHT22;10589;53.636;10.012;2022-12-07T15:03:39;2.50;99.90
20858;DHT22;10589;53.636;10.012;2022-12-07T15:06:06;2.40;99.90
20858;DHT22;10589;53.636;10.012;2022-12-07T15:08:31;2.30;99.90
20858;DHT22;10589;53.636;10.012;2022-12-07T15:10:57;2.20;99.90
20858;DHT22;10589;53.636;10.012;2022-12-07T15:13:22;2.10;99.90
20858;DHT22;10589;53.636;10.012;2022-12-07T15:16:11;2.00;99.90
20858;DHT22;10589;53.636;10.012;2022-12-07T15:18:38;1.90;99.90
20858;DHT22;10589;53.636;10.012;2022-12-07T15:21:04;1.80;99.90
20858;DHT22;10589;53.636;10.012;2022-12-07T15:23:29;1.70;99.90
20858;DHT22;10589;53.636;10.012;2022-12-07T15:25:56;1.60;99.90
20858;DHT22;10589;53.636;10.012;2022-12-07T15:28:22;1.50;99.90
20858;DHT22;10589;53.636;10.012;2022-12-07T15:30:47;1.40;99.90
20858;DHT22;10589;53.636;10.012;2022-12-07T15:33:13;1.30;99.90
20858;DHT22;10589;53.636;10.012;2022-12-07T15:35:43;1.30;99.90
20858;DHT22;10589;53.636;10.012;2022-12-07T15:38:09;1.20;99.90
20858;DHT22;10589;53.636;10.012;2022-12-07T15:40:35;1.20;99.90
20858;DHT22;10589;53.636;10.012;2022-12-07T15:43:02;1.20;99.90
20858;DHT22;10589;53.636;10.012;2022-12-07T15:45:27;1.10;99.90
20858;DHT22;10589;53.636;10.012;2022-12-07T15:47:53;1.10;99.90
20858;DHT22;10589;53.636;10.012;2022-12-07T15:50:21;0.90;99.90
20858;DHT22;10589;53.636;10.012;2022-12-07T15:52:46;0.80;99.90
20858;DHT22;10589;53.636;10.012;2022-12-07T15:55:12;0.60;99.90
20858;DHT22;10589;53.636;10.012;2022-12-07T15:57:38;0.60;99.90
20858;DHT22;10589;53.636;10.012;2022-12-07T16:00:06;0.50;99.90
20858;DHT22;10589;53.636;10.012;2022-12-07T16:02:32;0.40;99.90
20858;DHT22;10589;53.636;10.012;2022-12-07T16:04:57;0.40;99.90
20858;DHT22;10589;53.636;10.012;2022-12-07T16:07:23;0.30;99.90
20858;DHT22;10589;53.636;10.012;2022-12-07T16:09:49;0.30;99.90
20858;DHT22;10589;53.636;10.012;2022-12-07T16:12:17;0.20;99.90
20858;DHT22;10589;53.636;10.012;2022-12-07T16:14:43;0.10;99.90
20858;DHT22;10589;53.636;10.012;2022-12-07T16:17:09;0.10;99.90
20858;DHT22;10589;53.636;10.012;2022-12-07T16:19:35;0.10;99.90
20858;DHT22;10589;53.636;10.012;2022-12-07T16:22:03;0.10;99.90
20858;DHT22;10589;53.636;10.012;2022-12-07T16:24:29;0.10;99.90
20858;DHT22;10589;53.636;10.012;2022-12-07T16:26:56;0.00;99.90
20858;DHT22;10589;53.636;10.012;2022-12-07T16:29:22;0.00;99.90
20858;DHT22;10589;53.636;10.012;2022-12-07T16:31:48;-0.10;99.90
20858;DHT22;10589;53.636;10.012;2022-12-07T16:34:14;-0.20;99.90
20858;DHT22;10589;53.636;10.012;2022-12-07T16:36:40;-0.20;99.90
20858;DHT22;10589;53.636;10.012;2022-12-07T16:39:06;-0.20;99.90
20858;DHT22;10589;53.636;10.012;2022-12-07T16:41:32;-0.10;99.90
20858;DHT22;10589;53.636;10.012;2022-12-07T16:44:05;-0.10;99.90
20858;DHT22;10589;53.636;10.012;2022-12-07T16:46:33;-0.10;99.90
20858;DHT22;10589;53.636;10.012;2022-12-07T16:48:59;-0.20;99.90
20858;DHT22;10589;53.636;10.012;2022-12-07T16:51:24;-0.20;99.90
20858;DHT22;10589;53.636;10.012;2022-12-07T16:53:52;-0.20;99.90
20858;DHT22;10589;53.636;10.012;2022-12-07T16:56:18;-0.30;99.90
20858;DHT22;10589;53.636;10.012;2022-12-07T16:58:44;-0.30;99.90
20858;DHT22;10589;53.636;10.012;2022-12-07T17:01:18;-0.40;99.90
20858;DHT22;10589;53.636;10.012;2022-12-07T17:03:44;-0.50;99.90
20858;DHT22;10589;53.636;10.012;2022-12-07T17:06:15;-0.60;99.90
20858;DHT22;10589;53.636;10.012;2022-12-07T17:08:42;-0.60;99.90
20858;DHT22;10589;53.636;10.012;2022-12-07T17:11:16;-0.60;99.90
20858;DHT22;10589;53.636;10.012;2022-12-07T17:13:43;-0.70;99.90
20858;DHT22;10589;53.636;10.012;2022-12-07T17:16:28;-0.70;99.90
20858;DHT22;10589;53.636;10.012;2022-12-07T17:18:54;-0.60;99.90
20858;DHT22;10589;53.636;10.012;2022-12-07T17:21:20;-0.50;99.90
20858;DHT22;10589;53.636;10.012;2022-12-07T17:23:46;-0.40;99.90
20858;DHT22;10589;53.636;10.012;2022-12-07T17:26:15;-0.40;99.90
20858;DHT22;10589;53.636;10.012;2022-12-07T17:28:41;-0.30;99.90
20858;DHT22;10589;53.636;10.012;2022-12-07T17:31:10;-0.30;99.90
20858;DHT22;10589;53.636;10.012;2022-12-07T17:33:36;-0.30;99.90
20858;DHT22;10589;53.636;10.012;2022-12-07T17:36:13;-0.30;99.90
20858;DHT22;10589;53.636;10.012;2022-12-07T17:38:40;-0.20;99.90
20858;DHT22;10589;53.636;10.012;2022-12-07T17:43:35;-0.20;99.90
20858;DHT22;10589;53.636;10.012;2022-12-07T17:46:10;-0.20;99.90
20858;DHT22;10589;53.636;10.012;2022-12-07T17:48:36;-0.20;99.90
20858;DHT22;10589;53.636;10.012;2022-12-07T17:51:02;-0.30;99.90
20858;DHT22;10589;53.636;10.012;2022-12-07T17:53:50;-0.30;99.90
20858;DHT22;10589;53.636;10.012;2022-12-07T17:56:16;-0.30;99.90
20858;DHT22;10589;53.636;10.012;2022-12-07T17:58:42;-0.30;99.90
20858;DHT22;10589;53.636;10.012;2022-12-07T18:01:08;-0.40;99.90
20858;DHT22;10589;53.636;10.012;2022-12-07T18:03:34;-0.40;99.90
20858;DHT22;10589;53.636;10.012;2022-12-07T18:06:00;-0.40;99.90
20858;DHT22;10589;53.636;10.012;2022-12-07T18:08:26;-0.40;99.90
20858;DHT22;10589;53.636;10.012;2022-12-07T18:11:00;-0.40;99.90
20858;DHT22;10589;53.636;10.012;2022-12-07T18:13:26;-0.40;99.90
20858;DHT22;10589;53.636;10.012;2022-12-07T18:16:02;-0.40;99.90
20858;DHT22;10589;53.636;10.012;2022-12-07T18:18:28;-0.30;99.90
20858;DHT22;10589;53.636;10.012;2022-12-07T18:20:53;-0.20;99.90
20858;DHT22;10589;53.636;10.012;2022-12-07T18:23:19;-0.20;99.90
20858;DHT22;10589;53.636;10.012;2022-12-07T18:25:49;-0.20;99.90
20858;DHT22;10589;53.636;10.012;2022-12-07T18:28:15;-0.20;99.90
20858;DHT22;10589;53.636;10.012;2022-12-07T18:30:41;-0.20;99.90
20858;DHT22;10589;53.636;10.012;2022-12-07T18:33:06;-0.20;99.90
20858;DHT22;10589;53.636;10.012;2022-12-07T18:35:32;-0.20;99.90
20858;DHT22;10589;53.636;10.012;2022-12-07T18:37:59;-0.30;99.90
20858;DHT22;10589;53.636;10.012;2022-12-07T18:40:25;-0.30;99.90
20858;DHT22;10589;53.636;10.012;2022-12-07T18:42:50;-0.30;99.90
20858;DHT22;10589;53.636;10.012;2022-12-07T18:45:16;-0.40;99.90
20858;DHT22;10589;53.636;10.012;2022-12-07T18:47:41;-0.40;99.90
20858;DHT22;10589;53.636;10.012;2022-12-07T18:50:07;-0.50;99.90
20858;DHT22;10589;53.636;10.012;2022-12-07T18:52:33;-0.60;99.90
20858;DHT22;10589;53.636;10.012;2022-12-07T18:54:59;-0.60;99.90
20858;DHT22;10589;53.636;10.012;2022-12-07T18:57:27;-0.70;99.90
20858;DHT22;10589;53.636;10.012;2022-12-07T18:59:52;-0.70;99.90
20858;DHT22;10589;53.636;10.012;2022-12-07T19:02:18;-0.70;99.90
20858;DHT22;10589;53.636;10.012;2022-12-07T19:04:44;-0.70;99.90
20858;DHT22;10589;53.636;10.012;2022-12-07T19:07:10;-0.70;99.90
20858;DHT22;10589;53.636;10.012;2022-12-07T19:09:36;-0.60;99.90
20858;DHT22;10589;53.636;10.012;2022-12-07T19:12:01;-0.50;99.90
20858;DHT22;10589;53.636;10.012;2022-12-07T19:14:34;-0.50;99.90
20858;DHT22;10589;53.636;10.012;2022-12-07T19:17:05;-0.50;99.90
20858;DHT22;10589;53.636;10.012;2022-12-07T19:19:35;-0.60;99.90
20858;DHT22;10589;53.636;10.012;2022-12-07T19:22:02;-0.60;99.90
20858;DHT22;10589;53.636;10.012;2022-12-07T19:24:28;-0.60;99.90
20858;DHT22;10589;53.636;10.012;2022-12-07T19:26:54;-0.60;99.90
20858;DHT22;10589;53.636;10.012;2022-12-07T19:29:20;-0.60;99.90
20858;DHT22;10589;53.636;10.012;2022-12-07T19:31:46;-0.60;99.90
20858;DHT22;10589;53.636;10.012;2022-12-07T19:34:13;-0.60;99.90
20858;DHT22;10589;53.636;10.012;2022-12-07T19:36:41;-0.60;99.90
20858;DHT22;10589;53.636;10.012;2022-12-07T19:39:07;-0.60;99.90
20858;DHT22;10589;53.636;10.012;2022-12-07T19:41:33;-0.60;99.90
20858;DHT22;10589;53.636;10.012;2022-12-07T19:46:25;-0.50;99.90
20858;DHT22;10589;53.636;10.012;2022-12-07T19:48:52;-0.50;99.90
20858;DHT22;10589;53.636;10.012;2022-12-07T19:51:18;-0.50;99.90
20858;DHT22;10589;53.636;10.012;2022-12-07T19:53:44;-0.50;99.90
20858;DHT22;10589;53.636;10.012;2022-12-07T19:56:14;-0.50;99.90
20858;DHT22;10589;53.636;10.012;2022-12-07T19:58:40;-0.50;99.90
20858;DHT22;10589;53.636;10.012;2022-12-07T20:01:06;-0.50;99.90
20858;DHT22;10589;53.636;10.012;2022-12-07T20:03:31;-0.60;99.90
20858;DHT22;10589;53.636;10.012;2022-12-07T20:05:57;-0.60;99.90
20858;DHT22;10589;53.636;10.012;2022-12-07T20:08:23;-0.60;99.90
20858;DHT22;10589;53.636;10.012;2022-12-07T20:10:49;-0.60;99.90
20858;DHT22;10589;53.636;10.012;2022-12-07T20:13:16;-0.70;99.90
20858;DHT22;10589;53.636;10.012;2022-12-07T20:15:56;-0.70;99.90
20858;DHT22;10589;53.636;10.012;2022-12-07T20:18:23;-0.70;99.90
20858;DHT22;10589;53.636;10.012;2022-12-07T20:20:56;-0.70;99.90
20858;DHT22;10589;53.636;10.012;2022-12-07T20:23:27;-0.60;99.90
20858;DHT22;10589;53.636;10.012;2022-12-07T20:25:53;-0.60;99.90
20858;DHT22;10589;53.636;10.012;2022-12-07T20:28:19;-0.60;99.90
20858;DHT22;10589;53.636;10.012;2022-12-07T20:30:47;-0.60;99.90
20858;DHT22;10589;53.636;10.012;2022-12-07T20:33:12;-0.50;99.90
20858;DHT22;10589;53.636;10.012;2022-12-07T20:35:38;-0.50;99.90
20858;DHT22;10589;53.636;10.012;2022-12-07T20:38:04;-0.50;99.90
20858;DHT22;10589;53.636;10.012;2022-12-07T20:40:29;-0.40;99.90
20858;DHT22;10589;53.636;10.012;2022-12-07T20:42:55;-0.40;99.90
20858;DHT22;10589;53.636;10.012;2022-12-07T20:45:21;-0.40;99.90
20858;DHT22;10589;53.636;10.012;2022-12-07T20:47:47;-0.30;99.90
20858;DHT22;10589;53.636;10.012;2022-12-07T20:50:13;-0.20;99.90
20858;DHT22;10589;53.636;10.012;2022-12-07T20:52:39;-0.20;99.90
20858;DHT22;10589;53.636;10.012;2022-12-07T20:55:05;0.00;99.90
20858;DHT22;10589;53.636;10.012;2022-12-07T20:57:30;0.10;99.90
20858;DHT22;10589;53.636;10.012;2022-12-07T20:59:56;0.40;99.90
20858;DHT22;10589;53.636;10.012;2022-12-07T21:02:22;0.40;99.90
20858;DHT22;10589;53.636;10.012;2022-12-07T21:04:48;0.70;99.90
20858;DHT22;10589;53.636;10.012;2022-12-07T21:07:14;0.70;99.90
20858;DHT22;10589;53.636;10.012;2022-12-07T21:09:39;0.80;99.90
20858;DHT22;10589;53.636;10.012;2022-12-07T21:12:05;0.90;99.90
20858;DHT22;10589;53.636;10.012;2022-12-07T21:14:37;0.90;99.90
20858;DHT22;10589;53.636;10.012;2022-12-07T21:17:03;1.00;99.90
20858;DHT22;10589;53.636;10.012;2022-12-07T21:19:29;1.10;99.90
20858;DHT22;10589;53.636;10.012;2022-12-07T21:21:55;1.10;99.90
20858;DHT22;10589;53.636;10.012;2022-12-07T21:24:20;1.10;99.90
20858;DHT22;10589;53.636;10.012;2022-12-07T21:26:46;1.20;99.90
20858;DHT22;10589;53.636;10.012;2022-12-07T21:29:11;1.20;99.90
20858;DHT22;10589;53.636;10.012;2022-12-07T21:31:37;1.20;99.90
20858;DHT22;10589;53.636;10.012;2022-12-07T21:34:03;1.20;99.90
20858;DHT22;10589;53.636;10.012;2022-12-07T21:36:29;1.20;99.90
20858;DHT22;10589;53.636;10.012;2022-12-07T21:38:55;1.30;99.90
20858;DHT22;10589;53.636;10.012;2022-12-07T21:41:24;1.20;99.90
20858;DHT22;10589;53.636;10.012;2022-12-07T21:43:50;1.30;99.90
20858;DHT22;10589;53.636;10.012;2022-12-07T21:46:17;1.30;99.90
20858;DHT22;10589;53.636;10.012;2022-12-07T21:48:48;1.40;99.90
20858;DHT22;10589;53.636;10.012;2022-12-07T21:51:13;1.40;99.90
20858;DHT22;10589;53.636;10.012;2022-12-07T21:53:41;1.40;99.90
20858;DHT22;10589;53.636;10.012;2022-12-07T21:58:42;1.40;99.90
20858;DHT22;10589;53.636;10.012;2022-12-07T22:01:17;1.50;99.90
20858;DHT22;10589;53.636;10.012;2022-12-07T22:03:44;1.50;99.90